Latest Coastal Weather Observations for Bedout Island

IDW60701

Issued at 7:33 am WST Wednesday 22 February 2017 (issued every 10 minutes, with the page automatically refreshed every 10 minutes)

About coastal observations | Map of coastal stations | Coastal observations for WA | Marine services | Other Formats
Station Details ID: 004100 Name: BEDOUT ISLAND Lat: -19.59 Lon: 119.10 Height: 8.6 m
Data from the previous 72 hours. | See also: Recent months at Bedout Island
Date/Time
WST
Temp
°C
Wind Pressure Rain since
9am
mm
Weather Cloud Vis
km
Sea
Height
m
Swell
Dir  Spd
kts
Gust
kts
hPa Trend Height
m
Period
s
Dir
22/07:30am 29.5 NW 13 16 1011.5 - - - - - - - - -
22/07:00am 28.9 NW 14 17 1011.3 - - - - - - - - -
22/06:30am 28.2 NW 14 17 1011.1 - - - - - - - - -
22/06:00am 28.0 NW 16 18 1010.8 - - - - - - - - -
22/05:30am 28.1 NW 16 18 1010.9 - - - - - - - - -
22/05:00am 28.1 NW 15 19 1010.8 - - - - - - - - -
22/04:00am 28.0 NW 14 17 1010.3 - - - - - - - - -
22/02:30am 28.3 NW 14 16 1010.1 - - - - - - - - -
22/01:30am 28.4 NW 15 17 1010.2 - - - - - - - - -
22/12:30am 28.5 NW 15 18 1010.2 - - - - - - - - -
22/12:00am 28.4 NW 16 19 1010.3 - - - - - - - - -
 
Date/Time
WST
Temp
°C
Wind Pressure Rain since
9am
mm
Weather Cloud Vis
km
Sea
Height
m
Swell
Dir  Spd
kts
Gust
kts
hPa Trend Height
m
Period
s
Dir
21/11:30pm 28.2 NW 16 18 1010.3 - - - - - - - - -
21/11:00pm 28.2 NW 14 18 1010.4 - - - - - - - - -
21/10:30pm 28.3 NW 14 17 1010.6 - - - - - - - - -
21/10:00pm 28.2 NW 14 16 1010.5 - - - - - - - - -
21/09:30pm 28.3 NW 15 19 1010.2 - - - - - - - - -
21/09:00pm 28.4 NW 16 19 1009.8 - - - - - - - - -
21/08:30pm 28.5 WNW 17 19 1009.8 - - - - - - - - -
21/08:00pm 28.5 WNW 17 19 1009.2 - - - - - - - - -
21/07:30pm 28.6 WNW 16 18 1009.2 - - - - - - - - -
21/07:00pm 28.7 WNW 16 19 1008.8 - - - - - - - - -
21/06:30pm 28.9 WNW 18 20 1008.3 - - - - - - - - -
21/06:00pm 29.5 W 17 19 1008.1 - - - - - - - - -
21/05:30pm 30.1 W 16 18 1007.9 - - - - - - - - -
21/05:00pm 30.3 W 16 18 1007.6 - - - - - - - - -
21/04:30pm 31.0 W 16 18 1007.4 - - - - - - - - -
21/04:00pm 31.3 W 17 20 1007.5 - - - - - - - - -
21/03:00pm 31.9 W 15 17 1007.7 - - - - - - - - -
21/02:30pm 31.8 WSW 16 19 1008.0 - - - - - - - - -
21/02:00pm 31.9 WSW 15 18 1008.4 - - - - - - - - -
21/01:30pm 31.7 WSW 15 17 1008.8 - - - - - - - - -
21/01:00pm 32.5 WSW 14 16 1009.1 - - - - - - - - -
21/12:30pm 32.3 WSW 13 15 1009.6 - - - - - - - - -
21/11:30am 31.4 WSW 13 15 1010.1 - - - - - - - - -
21/10:30am 31.9 WSW 12 14 1010.5 - - - - - - - - -
21/10:00am 31.3 WSW 12 14 1010.7 - - - - - - - - -
21/09:30am 31.1 WSW 12 14 1010.6 - - - - - - - - -
21/09:00am 30.6 W 12 13 1010.5 - - - - - - - - -
21/08:30am 30.4 WSW 10 12 1010.5 - - - - - - - - -
21/07:30am 29.3 WSW 8 10 1010.4 - - - - - - - - -
21/06:30am 28.0 WSW 7 8 1009.8 - - - - - - - - -
21/06:00am 27.5 W 5 5 1009.4 - - - - - - - - -
21/05:30am 27.7 WSW 4 5 1009.5 - - - - - - - - -
21/04:30am 28.3 WSW 10 11 1008.7 - - - - - - - - -
21/04:00am 28.4 WSW 12 15 1008.4 - - - - - - - - -
21/03:00am 28.5 W 15 17 1008.2 - - - - - - - - -
21/02:30am 28.5 W 15 16 1008.2 - - - - - - - - -
21/02:00am 28.6 W 14 16 1008.2 - - - - - - - - -
21/01:30am 28.6 W 14 16 1008.3 - - - - - - - - -
21/01:00am 28.7 W 11 13 1008.4 - - - - - - - - -
21/12:30am 28.7 W 12 13 1008.5 - - - - - - - - -
21/12:00am 28.8 W 12 14 1008.7 - - - - - - - - -
 
Date/Time
WST
Temp
°C
Wind Pressure Rain since
9am
mm
Weather Cloud Vis
km
Sea
Height
m
Swell
Dir  Spd
kts
Gust
kts
hPa Trend Height
m
Period
s
Dir
20/11:30pm 28.7 W 13 15 1008.7 - - - - - - - - -
20/11:00pm 28.8 W 15 17 1008.8 - - - - - - - - -
20/10:00pm 28.7 W 17 18 1008.7 - - - - - - - - -
20/09:30pm 28.9 W 16 19 1008.6 - - - - - - - - -
20/09:00pm 28.9 W 16 18 1008.3 - - - - - - - - -
20/08:30pm 29.0 WSW 17 19 1008.2 - - - - - - - - -
20/08:00pm 29.2 WSW 17 19 1008.1 - - - - - - - - -
20/07:00pm 29.6 WSW 14 16 1007.3 - - - - - - - - -
20/06:30pm 30.0 WSW 11 13 1006.9 - - - - - - - - -
20/06:00pm 30.7 WSW 13 14 1006.6 - - - - - - - - -
20/05:30pm 31.4 WSW 13 15 1006.2 - - - - - - - - -
20/04:30pm 32.3 WSW 14 16 1006.2 - - - - - - - - -
20/04:00pm 32.5 WSW 14 15 1006.3 - - - - - - - - -
20/03:30pm 32.9 WSW 13 14 1006.4 - - - - - - - - -
20/03:00pm 33.3 WSW 11 13 1006.5 - - - - - - - - -
20/02:30pm 33.1 WSW 12 14 1006.6 - - - - - - - - -
20/02:00pm 33.2 WSW 13 15 1006.8 - - - - - - - - -
20/01:30pm 33.3 WSW 12 14 1007.0 - - - - - - - - -
20/01:00pm 33.6 WSW 13 15 1007.5 - - - - - - - - -
20/12:30pm 32.8 WSW 13 14 1007.8 - - - - - - - - -
20/12:00pm 32.9 WSW 12 14 1008.2 - - - - - - - - -
20/11:30am 32.3 WSW 12 14 1008.6 - - - - - - - - -
20/11:00am 32.5 WSW 14 15 1008.9 - - - - - - - - -
20/10:30am 32.3 WSW 13 14 1009.3 - - - - - - - - -
20/10:00am 31.8 WSW 11 13 1009.6 - - - - - - - - -
20/09:30am 31.7 WSW 11 13 1009.9 - - - - - - - - -
20/09:00am 31.1 WSW 12 13 1009.8 - - - - - - - - -
20/08:30am 30.9 WSW 10 11 1010.1 - - - - - - - - -
20/08:00am 30.5 WSW 10 12 1010.0 - - - - - - - - -
20/07:30am 29.9 WSW 10 12 1010.0 - - - - - - - - -
20/07:00am 29.3 WSW 10 12 1009.7 - - - - - - - - -
20/06:30am 28.7 WSW 11 11 1009.5 - - - - - - - - -
20/06:00am 28.5 WSW 11 12 1009.3 - - - - - - - - -
20/05:30am 28.4 WSW 9 11 1009.2 - - - - - - - - -
20/04:30am 28.6 WSW 11 12 1008.7 - - - - - - - - -
20/04:00am 28.7 WSW 12 14 1008.5 - - - - - - - - -
20/03:00am 28.5 WSW 12 14 1008.2 - - - - - - - - -
20/02:30am 28.5 WSW 12 14 1008.3 - - - - - - - - -
20/02:00am 28.5 WSW 13 15 1008.4 - - - - - - - - -
20/01:30am 28.6 WSW 13 14 1008.7 - - - - - - - - -
20/01:00am 28.7 WSW 12 14 1008.9 - - - - - - - - -
20/12:00am 28.7 W 10 11 1008.9 - - - - - - - - -
 
Date/Time
WST
Temp
°C
Wind Pressure Rain since
9am
mm
Weather Cloud Vis
km
Sea
Height
m
Swell
Dir  Spd
kts
Gust
kts
hPa Trend Height
m
Period
s
Dir
19/11:30pm 28.6 W 10 11 1008.9 - - - - - - - - -
19/11:00pm 28.7 W 10 11 1009.0 - - - - - - - - -
19/10:30pm 28.8 W 11 12 1009.0 - - - - - - - - -
19/10:00pm 28.9 W 11 12 1009.1 - - - - - - - - -
19/09:30pm 28.8 W 11 12 1009.0 - - - - - - - - -
19/09:00pm 29.0 W 12 13 1008.8 - - - - - - - - -
19/08:30pm 28.9 W 13 15 1008.8 - - - - - - - - -
19/07:30pm 29.1 W 14 16 1008.2 - - - - - - - - -
19/07:00pm 29.2 W 15 17 1007.9 - - - - - - - - -
19/06:30pm 29.4 W 15 17 1007.7 - - - - - - - - -
19/06:00pm 30.2 W 15 16 1007.4 - - - - - - - - -
19/05:30pm 30.7 W 14 16 1007.6 - - - - - - - - -
19/05:00pm 31.5 W 13 15 1007.6 - - - - - - - - -
19/04:30pm 31.7 W 14 15 1007.6 - - - - - - - - -
19/04:00pm 31.7 W 14 16 1007.7 - - - - - - - - -
19/03:30pm 32.1 W 14 15 1007.9 - - - - - - - - -
19/03:00pm 32.1 W 14 15 1008.0 - - - - - - - - -
19/02:30pm 32.8 W 13 15 1008.4 - - - - - - - - -
19/02:00pm 32.5 W 12 14 1008.5 - - - - - - - - -
19/01:30pm 32.7 W 12 13 1008.7 - - - - - - - - -
19/01:00pm 32.6 W 11 12 1009.0 - - - - - - - - -
19/12:30pm 32.5 W 10 11 1009.4 - - - - - - - - -
19/12:00pm 32.8 W 9 11 1009.8 - - - - - - - - -
19/11:30am 31.9 W 10 11 1010.2 - - - - - - - - -
19/11:00am 31.9 WNW 11 12 1010.5 - - - - - - - - -
19/10:30am 31.9 WNW 11 13 1011.0 - - - - - - - - -
19/10:00am 31.5 WNW 11 13 1011.4 - - - - - - - - -
19/09:30am 31.5 WNW 11 14 1011.6 - - - - - - - - -
19/09:00am 30.9 WNW 11 13 1011.7 - - - - - - - - -
19/08:00am 29.7 WNW 12 14 1012.0 - - - - - - - - -

Other Formats:

Comma delimited format used in spreadsheet applications
http://www.bom.gov.au/fwo/IDW60701/IDW60701.94310.axf

JavaScript Object Notation format (JSON) in row-major order
http://www.bom.gov.au/fwo/IDW60701/IDW60701.94310.json